createdAt,value
2023-01-22T00:01:09.296Z,95024.22
2023-01-22T00:03:41.020Z,95015.16
2023-01-22T00:06:09.463Z,95024.81
2023-01-22T00:08:37.000Z,95017.16
2023-01-22T00:11:04.587Z,95014.66
2023-01-22T00:13:31.606Z,95024.06
2023-01-22T00:15:59.959Z,95019.56
2023-01-22T00:18:27.218Z,95020.66
2023-01-22T00:20:55.372Z,95024.06
2023-01-22T00:23:23.379Z,95028.47
2023-01-22T00:25:50.978Z,95001.19
2023-01-22T00:28:17.743Z,95011.16
2023-01-22T00:30:44.534Z,95022.97
2023-01-22T00:33:11.626Z,95016.13
2023-01-22T00:35:38.790Z,95004.44
2023-01-22T00:38:06.259Z,95009.34
2023-01-22T00:40:32.998Z,95012.66
2023-01-22T00:42:59.793Z,94996.94
2023-01-22T00:45:26.503Z,95003.44
2023-01-22T00:47:53.293Z,95009.34
2023-01-22T00:50:20.198Z,94997.03
2023-01-22T00:52:47.238Z,94994.22
2023-01-22T00:55:13.978Z,95000.53
2023-01-22T00:57:40.719Z,94999.78
2023-01-22T01:00:09.073Z,95001.94
2023-01-22T01:02:58.980Z,95001.53
2023-01-22T01:05:26.448Z,94999.03
2023-01-22T01:07:53.264Z,95000.38
2023-01-22T01:10:20.712Z,95001.44
2023-01-22T01:12:47.640Z,94996.44
2023-01-22T01:15:14.372Z,94987.03
2023-01-22T01:17:41.127Z,94994.69
2023-01-22T01:20:08.760Z,95004.78
2023-01-22T01:22:35.647Z,94989.06
2023-01-22T01:25:02.474Z,94990.53
2023-01-22T01:27:31.771Z,94992.72
2023-01-22T01:29:59.282Z,95000.59
2023-01-22T01:32:26.145Z,95002.50
2023-01-22T01:34:52.918Z,95001.75
2023-01-22T01:37:19.740Z,94999.38
2023-01-22T01:39:48.029Z,95007.66
2023-01-22T01:42:14.824Z,95005.28
2023-01-22T01:44:43.154Z,94988.88
2023-01-22T01:47:34.739Z,94990.63
2023-01-22T01:50:02.051Z,94992.53
2023-01-22T01:52:28.808Z,94992.19
2023-01-22T01:54:58.023Z,94990.81
2023-01-22T01:57:30.639Z,94997.34
2023-01-22T01:59:58.122Z,94975.41
2023-01-22T02:02:25.079Z,94989.47
2023-01-22T02:04:53.758Z,94980.25
2023-01-22T02:07:20.774Z,94986.88
2023-01-22T02:09:47.687Z,94975.97
2023-01-22T02:12:14.552Z,94986.06
2023-01-22T02:14:45.996Z,94975.97
2023-01-22T02:17:21.707Z,94980.06
2023-01-22T02:19:48.781Z,94976.66
2023-01-22T02:22:22.758Z,94979.22
2023-01-22T02:24:50.257Z,94980.16
2023-01-22T02:27:17.035Z,94969.25
2023-01-22T02:29:43.839Z,94973.84
2023-01-22T02:32:10.731Z,94971.41
2023-01-22T02:34:37.676Z,94969.59
2023-01-22T02:37:04.876Z,94981.88
2023-01-22T02:39:31.784Z,94974.06
2023-01-22T02:41:58.865Z,94989.13
2023-01-22T02:44:25.699Z,94981.97
2023-01-22T02:46:52.454Z,94979.75
2023-01-22T02:49:19.200Z,94976.41
2023-01-22T02:51:46.006Z,94969.75
2023-01-22T02:54:12.747Z,94980.88
2023-01-22T02:56:39.564Z,94979.22
2023-01-22T02:59:06.393Z,94981.88
2023-01-22T03:01:33.321Z,94978.47
2023-01-22T03:04:11.012Z,94974.06
2023-01-22T03:06:44.062Z,94969.16
2023-01-22T03:09:13.401Z,94978.47
2023-01-22T03:11:42.359Z,94966.59
2023-01-22T03:14:27.953Z,94971.31
2023-01-22T03:17:13.739Z,94972.41
2023-01-22T03:19:59.312Z,94963.19
2023-01-22T03:22:26.129Z,94967.41
2023-01-22T03:24:53.692Z,94971.00
2023-01-22T03:27:23.733Z,94985.31
2023-01-22T03:29:50.950Z,94975.06
2023-01-22T03:32:18.448Z,94980.88
2023-01-22T03:34:45.415Z,94968.50
2023-01-22T03:37:15.341Z,94969.09
2023-01-22T03:39:42.432Z,94981.38
2023-01-22T03:42:09.355Z,94980.97
2023-01-22T03:44:36.126Z,94972.91
2023-01-22T03:47:03.076Z,94985.53
2023-01-22T03:49:29.894Z,94979.75
2023-01-22T03:51:57.219Z,94983.41
2023-01-22T03:54:23.967Z,94976.56
2023-01-22T03:56:50.685Z,94962.00
2023-01-22T03:59:17.440Z,94966.59
2023-01-22T04:01:44.432Z,94985.53
2023-01-22T04:04:11.220Z,94974.31
2023-01-22T04:06:37.929Z,94990.47
2023-01-22T04:09:04.703Z,94973.66
2023-01-22T04:11:31.489Z,94981.56
2023-01-22T04:13:58.248Z,94970.31
2023-01-22T04:16:25.060Z,94974.25
2023-01-22T04:18:51.822Z,94988.28
2023-01-22T04:21:18.562Z,94988.84
2023-01-22T04:23:45.396Z,94993.19
2023-01-22T04:26:12.272Z,95008.50
2023-01-22T04:28:39.018Z,94977.59
2023-01-22T04:31:06.240Z,94999.19
2023-01-22T04:33:33.035Z,94993.94
2023-01-22T04:35:59.826Z,94994.19
2023-01-22T04:38:26.591Z,94997.34
2023-01-22T04:40:53.323Z,95004.66
2023-01-22T04:43:20.249Z,94994.34
2023-01-22T04:45:46.977Z,95003.34
2023-01-22T04:48:14.149Z,94999.00
2023-01-22T04:50:40.919Z,95010.34
2023-01-22T04:53:07.683Z,94995.22
2023-01-22T04:55:34.609Z,95010.34
2023-01-22T04:58:02.467Z,94997.03
2023-01-22T05:00:31.081Z,95011.97
2023-01-22T05:03:00.359Z,94997.44
2023-01-22T05:05:28.203Z,95023.72
2023-01-22T05:07:55.216Z,95021.94
2023-01-22T05:10:22.697Z,95020.47
2023-01-22T05:12:50.540Z,95026.44
2023-01-22T05:15:24.481Z,95018.22
2023-01-22T05:17:53.169Z,95022.69
2023-01-22T05:20:21.227Z,95013.06
2023-01-22T05:22:48.164Z,95025.88
2023-01-22T05:25:15.005Z,95030.38
2023-01-22T05:27:41.816Z,95043.09
2023-01-22T05:30:10.213Z,95022.22
2023-01-22T05:32:37.227Z,95044.09
2023-01-22T05:35:06.077Z,95042.19
2023-01-22T05:37:33.056Z,95047.94
2023-01-22T05:39:59.836Z,95034.44
2023-01-22T05:42:26.618Z,95048.75
2023-01-22T05:44:53.379Z,95050.84
2023-01-22T05:47:20.260Z,95060.63
2023-01-22T05:49:46.986Z,95063.97
2023-01-22T05:52:13.760Z,95042.03
2023-01-22T05:54:40.519Z,95060.31
2023-01-22T05:57:07.962Z,95054.66
2023-01-22T05:59:34.795Z,95062.25
2023-01-22T06:02:02.020Z,95042.78
2023-01-22T06:04:29.439Z,95068.38
2023-01-22T06:06:56.213Z,95074.03
2023-01-22T06:09:23.515Z,95062.25
2023-01-22T06:11:50.348Z,95053.84
2023-01-22T06:14:17.137Z,95062.47
2023-01-22T06:16:43.965Z,95076.78
2023-01-22T06:19:10.983Z,95059.88
2023-01-22T06:21:37.679Z,95067.53
2023-01-22T06:24:04.712Z,95070.06
2023-01-22T06:26:31.555Z,95074.19
2023-01-22T06:28:58.318Z,95070.38
2023-01-22T06:31:25.392Z,95065.03
2023-01-22T06:33:54.701Z,95076.84
2023-01-22T06:36:21.515Z,95067.81
2023-01-22T06:38:48.474Z,95064.91
2023-01-22T06:41:15.254Z,95034.53
2023-01-22T06:43:42.031Z,95081.44
2023-01-22T06:46:08.925Z,95054.91
2023-01-22T06:48:35.780Z,95073.88
2023-01-22T06:51:02.625Z,95082.94
2023-01-22T06:53:29.515Z,95044.09
2023-01-22T06:55:59.733Z,95056.16
2023-01-22T06:58:26.506Z,95073.88
2023-01-22T07:00:53.266Z,95089.25
2023-01-22T07:03:20.089Z,95061.72
2023-01-22T07:05:46.937Z,95092.59
2023-01-22T07:08:15.702Z,95071.81
2023-01-22T07:10:42.713Z,95089.34
2023-01-22T07:13:10.390Z,95090.09
2023-01-22T07:15:37.189Z,95094.34
2023-01-22T07:18:04.187Z,95108.56
2023-01-22T07:20:31.234Z,95095.31
2023-01-22T07:23:00.169Z,95081.38
2023-01-22T07:25:28.081Z,95107.81
2023-01-22T07:28:03.408Z,95116.22
2023-01-22T07:30:30.464Z,95125.78
2023-01-22T07:33:02.049Z,95127.28
2023-01-22T07:35:29.729Z,95138.25
2023-01-22T07:37:59.245Z,95134.69
2023-01-22T07:40:26.821Z,95100.56
2023-01-22T07:42:54.839Z,95095.50
2023-01-22T07:45:24.627Z,95117.03
2023-01-22T07:47:56.493Z,95115.31
2023-01-22T07:50:30.324Z,95123.13
2023-01-22T07:52:57.583Z,95130.44
2023-01-22T07:55:24.460Z,95121.56
2023-01-22T07:57:59.853Z,95127.94
2023-01-22T08:00:27.008Z,95138.28
2023-01-22T08:02:53.828Z,95127.69
2023-01-22T08:05:21.004Z,95135.75
2023-01-22T08:07:47.777Z,95117.38
2023-01-22T08:10:15.364Z,95109.88
2023-01-22T08:12:46.117Z,95107.38
2023-01-22T08:15:13.968Z,95139.34
2023-01-22T08:17:41.020Z,95126.94
2023-01-22T08:20:09.929Z,95127.44
2023-01-22T08:22:36.803Z,95132.41
2023-01-22T08:25:03.710Z,95134.09
2023-01-22T08:27:30.548Z,95135.25
2023-01-22T08:29:57.377Z,95109.59
2023-01-22T08:32:24.446Z,95126.91
2023-01-22T08:34:54.294Z,95123.09
2023-01-22T08:37:24.452Z,95129.72
2023-01-22T08:39:51.216Z,95102.84
2023-01-22T08:42:18.053Z,95097.72
2023-01-22T08:44:44.819Z,95128.56
2023-01-22T08:47:11.681Z,95124.25
2023-01-22T08:49:38.497Z,95146.44
2023-01-22T08:52:05.635Z,95136.66
2023-01-22T08:54:32.492Z,95142.38
2023-01-22T08:56:59.270Z,95137.13
2023-01-22T08:59:26.071Z,95128.53
2023-01-22T09:01:53.087Z,95131.09
2023-01-22T09:04:20.072Z,95130.41
2023-01-22T09:06:46.824Z,95136.59
2023-01-22T09:09:13.719Z,95136.31
2023-01-22T09:11:40.942Z,95096.44
2023-01-22T09:14:09.851Z,95145.34
2023-01-22T09:16:37.374Z,95133.81
2023-01-22T09:19:05.170Z,95128.72
2023-01-22T09:21:33.931Z,95119.47
2023-01-22T09:24:01.039Z,95121.03
2023-01-22T09:26:27.878Z,95125.19
2023-01-22T09:28:54.633Z,95133.88
2023-01-22T09:31:21.626Z,95126.38
2023-01-22T09:33:48.398Z,95130.44
2023-01-22T09:36:16.950Z,95145.78
2023-01-22T09:38:44.517Z,95149.78
2023-01-22T09:41:16.201Z,95147.34
2023-01-22T09:44:10.695Z,95145.25
2023-01-22T09:46:44.502Z,95136.75
2023-01-22T09:49:20.444Z,95142.16
2023-01-22T09:51:54.367Z,95144.94
2023-01-22T09:54:21.531Z,95147.44
2023-01-22T09:56:52.883Z,95164.59
2023-01-22T09:59:47.151Z,95156.56
2023-01-22T10:02:32.050Z,95170.03
2023-01-22T10:05:26.245Z,95174.78
2023-01-22T10:08:05.088Z,95163.25
2023-01-22T10:10:33.479Z,95133.66
2023-01-22T10:13:23.744Z,95177.31
2023-01-22T10:15:54.796Z,95167.91
2023-01-22T10:18:27.377Z,95175.06
2023-01-22T10:20:55.817Z,95164.72
2023-01-22T10:23:25.799Z,95160.19
2023-01-22T10:26:15.231Z,95175.25
2023-01-22T10:28:49.187Z,95144.84
2023-01-22T10:31:33.700Z,95164.47
2023-01-22T10:34:11.765Z,95166.19
2023-01-22T10:36:38.533Z,95163.59
2023-01-22T10:39:10.874Z,95174.94
2023-01-22T10:41:38.487Z,95170.44
2023-01-22T10:44:25.993Z,95182.72
2023-01-22T10:46:55.209Z,95173.69
2023-01-22T10:49:25.727Z,95185.75
2023-01-22T10:51:56.333Z,95173.94
2023-01-22T10:54:35.244Z,95166.16
2023-01-22T10:57:40.677Z,95177.69
2023-01-22T11:00:16.343Z,95185.13
2023-01-22T11:02:48.916Z,95185.97
2023-01-22T11:05:22.197Z,95171.75
2023-01-22T11:07:54.124Z,95172.34
2023-01-22T11:10:38.234Z,95172.72
2023-01-22T11:13:47.477Z,95180.31
2023-01-22T11:16:21.098Z,95177.41
2023-01-22T11:19:18.114Z,95177.22
2023-01-22T11:21:55.452Z,95175.56
2023-01-22T11:24:41.224Z,95168.41
2023-01-22T11:27:41.158Z,95174.41
2023-01-22T11:30:35.118Z,95172.66
2023-01-22T11:33:34.416Z,95172.13
2023-01-22T11:36:50.366Z,95171.81
2023-01-22T11:39:32.676Z,95178.41
2023-01-22T11:42:17.848Z,95181.41
2023-01-22T11:44:55.999Z,95181.56
2023-01-22T11:47:58.643Z,95177.44
2023-01-22T11:50:43.998Z,95189.56
2023-01-22T11:53:31.674Z,95177.28
2023-01-22T11:56:25.405Z,95184.09
2023-01-22T11:58:57.169Z,95185.13
2023-01-22T12:01:35.764Z,95177.50
2023-01-22T12:04:50.113Z,95185.78
2023-01-22T12:07:46.000Z,95176.97
2023-01-22T12:11:06.655Z,95180.84
2023-01-22T12:14:27.194Z,95180.47
2023-01-22T12:17:17.796Z,95166.41
2023-01-22T12:20:04.728Z,95180.06
2023-01-22T12:23:01.243Z,95164.94
2023-01-22T12:25:47.183Z,95184.22
2023-01-22T12:28:36.386Z,95176.53
2023-01-22T12:31:23.227Z,95181.72
2023-01-22T12:33:50.069Z,95176.91
2023-01-22T12:36:23.915Z,95183.66
2023-01-22T12:38:57.343Z,95179.88
2023-01-22T12:41:48.584Z,95183.41
2023-01-22T12:44:49.605Z,95188.19
2023-01-22T12:47:25.858Z,95191.91
2023-01-22T12:49:53.464Z,95192.59
2023-01-22T12:52:37.845Z,95199.69
2023-01-22T12:55:35.135Z,95204.91
2023-01-22T12:58:03.551Z,95201.72
2023-01-22T13:00:35.938Z,95198.81
2023-01-22T13:03:31.065Z,95186.59
2023-01-22T13:06:01.215Z,95189.31
2023-01-22T13:08:43.564Z,95191.63
2023-01-22T13:11:28.356Z,95179.97
2023-01-22T13:14:27.127Z,95176.63
2023-01-22T13:17:03.709Z,95177.25
2023-01-22T13:19:42.563Z,95191.50
2023-01-22T13:22:18.537Z,95202.78
2023-01-22T13:24:57.746Z,95193.25
2023-01-22T13:27:33.997Z,95207.34
2023-01-22T13:30:31.209Z,95205.72
2023-01-22T13:33:04.841Z,95205.38
2023-01-22T13:35:31.666Z,95197.75
2023-01-22T13:37:58.548Z,95204.75
2023-01-22T13:40:28.702Z,95205.16
2023-01-22T13:42:58.632Z,95203.69
2023-01-22T13:45:30.517Z,95206.84
2023-01-22T13:48:03.998Z,95210.09
2023-01-22T13:50:32.179Z,95203.56
2023-01-22T13:53:01.704Z,95207.22
2023-01-22T13:55:30.599Z,95205.25
2023-01-22T13:57:59.298Z,95196.94
2023-01-22T14:00:35.273Z,95208.78
2023-01-22T14:03:03.076Z,95208.25
2023-01-22T14:05:34.664Z,95209.41
2023-01-22T14:08:08.255Z,95218.13
2023-01-22T14:10:35.228Z,95219.97
2023-01-22T14:13:04.874Z,95220.69
2023-01-22T14:15:32.952Z,95226.19
2023-01-22T14:18:29.021Z,95228.47
2023-01-22T14:20:55.782Z,95218.84
2023-01-22T14:23:22.497Z,95220.47
2023-01-22T14:25:52.680Z,95221.41
2023-01-22T14:28:21.895Z,95223.38
2023-01-22T14:30:49.404Z,95220.19
2023-01-22T14:33:25.819Z,95219.03
2023-01-22T14:35:53.730Z,95225.38
2023-01-22T14:38:20.984Z,95229.44
2023-01-22T14:40:47.913Z,95226.09
2023-01-22T14:43:14.760Z,95235.56
2023-01-22T14:45:44.257Z,95237.84
2023-01-22T14:48:19.745Z,95238.69
2023-01-22T14:50:47.832Z,95231.91
2023-01-22T14:53:15.879Z,95225.78
2023-01-22T14:55:43.287Z,95235.88
2023-01-22T14:58:10.768Z,95230.31
2023-01-22T15:00:39.033Z,95241.19
2023-01-22T15:03:05.871Z,95236.34
2023-01-22T15:05:35.336Z,95244.50
2023-01-22T15:08:02.430Z,95244.56
2023-01-22T15:10:29.266Z,95247.34
2023-01-22T15:12:56.111Z,95247.56
2023-01-22T15:15:27.020Z,95247.69
2023-01-22T15:17:55.473Z,95267.75
2023-01-22T15:20:22.609Z,95254.28
2023-01-22T15:22:52.161Z,95253.53
2023-01-22T15:25:19.182Z,95263.91
2023-01-22T15:27:46.242Z,95264.72
2023-01-22T15:30:14.273Z,95273.31
2023-01-22T15:32:41.180Z,95276.78
2023-01-22T15:35:08.502Z,95277.22
2023-01-22T15:37:35.251Z,95274.44
2023-01-22T15:40:02.471Z,95278.50
2023-01-22T15:42:29.254Z,95277.59
2023-01-22T15:44:56.065Z,95286.13
2023-01-22T15:47:22.864Z,95278.75
2023-01-22T15:49:49.630Z,95280.63
2023-01-22T15:52:16.443Z,95278.22
2023-01-22T15:54:43.187Z,95245.00
2023-01-22T15:57:09.928Z,95287.34
2023-01-22T15:59:38.934Z,95284.38
2023-01-22T16:02:06.226Z,95288.97
2023-01-22T16:04:33.005Z,95286.09
2023-01-22T16:06:59.812Z,95293.25
2023-01-22T16:09:26.631Z,95299.91
2023-01-22T16:11:53.455Z,95282.31
2023-01-22T16:14:20.343Z,95298.50
2023-01-22T16:16:47.155Z,95306.81
2023-01-22T16:19:14.022Z,95308.19
2023-01-22T16:21:40.879Z,95310.78
2023-01-22T16:24:07.934Z,95313.53
2023-01-22T16:26:36.164Z,95318.53
2023-01-22T16:29:05.644Z,95318.69
2023-01-22T16:31:35.321Z,95319.56
2023-01-22T16:34:18.389Z,95317.19
2023-01-22T16:36:45.762Z,95327.19
2023-01-22T16:39:22.633Z,95323.03
2023-01-22T16:41:51.584Z,95319.44
2023-01-22T16:44:24.594Z,95329.69
2023-01-22T16:46:55.295Z,95319.91
2023-01-22T16:49:31.368Z,95314.72
2023-01-22T16:52:16.799Z,95335.22
2023-01-22T16:54:49.409Z,95323.31
2023-01-22T16:57:16.467Z,95325.06
2023-01-22T16:59:43.271Z,95334.75
2023-01-22T17:02:15.710Z,95336.00
2023-01-22T17:04:42.597Z,95335.09
2023-01-22T17:07:20.527Z,95330.34
2023-01-22T17:09:54.587Z,95331.03
2023-01-22T17:12:21.363Z,95335.25
2023-01-22T17:14:52.689Z,95339.44
2023-01-22T17:17:19.423Z,95329.63
2023-01-22T17:19:46.240Z,95342.97
2023-01-22T17:22:13.440Z,95331.28
2023-01-22T17:24:41.529Z,95348.22
2023-01-22T17:27:08.781Z,95359.63
2023-01-22T17:29:36.371Z,95359.47
2023-01-22T17:32:04.077Z,95360.97
2023-01-22T17:34:31.100Z,95351.97
2023-01-22T17:36:57.858Z,95355.28
2023-01-22T17:39:24.861Z,95354.94
2023-01-22T17:41:51.641Z,95356.72
2023-01-22T17:44:18.461Z,95343.31
2023-01-22T17:46:45.283Z,95372.22
2023-01-22T17:49:12.072Z,95357.72
2023-01-22T17:51:38.899Z,95341.81
2023-01-22T17:54:06.334Z,95367.97
2023-01-22T17:56:36.742Z,95374.66
2023-01-22T17:59:06.421Z,95358.81
2023-01-22T18:01:36.820Z,95377.22
2023-01-22T18:04:08.317Z,95366.88
2023-01-22T18:06:36.442Z,95355.28
2023-01-22T18:09:05.732Z,95380.63
2023-01-22T18:11:35.295Z,95384.66
2023-01-22T18:14:09.793Z,95380.50
2023-01-22T18:16:39.290Z,95378.81
2023-01-22T18:19:07.456Z,95385.13
2023-01-22T18:21:37.135Z,95377.66
2023-01-22T18:24:06.647Z,95388.00
2023-01-22T18:26:34.323Z,95384.31
2023-01-22T18:29:01.891Z,95384.56
2023-01-22T18:31:29.829Z,95391.88
2023-01-22T18:34:02.323Z,95401.66
2023-01-22T18:36:36.128Z,95382.06
2023-01-22T18:39:12.620Z,95403.97
2023-01-22T18:41:40.890Z,95401.41
2023-01-22T18:44:10.247Z,95411.25
2023-01-22T18:46:39.195Z,95403.97
2023-01-22T18:49:12.792Z,95407.91
2023-01-22T18:51:42.042Z,95407.91
2023-01-22T18:54:09.129Z,95410.66
2023-01-22T18:56:37.576Z,95423.34
2023-01-22T18:59:05.822Z,95418.50
2023-01-22T19:01:38.382Z,95418.31
2023-01-22T19:04:08.142Z,95396.28
2023-01-22T19:06:37.912Z,95403.22
2023-01-22T19:09:14.303Z,95397.97
2023-01-22T19:11:44.461Z,95407.91
2023-01-22T19:14:16.573Z,95406.16
2023-01-22T19:16:48.623Z,95411.16
2023-01-22T19:19:17.157Z,95403.16
2023-01-22T19:21:47.713Z,95417.84
2023-01-22T19:24:18.643Z,95418.16
2023-01-22T19:26:46.826Z,95415.47
2023-01-22T19:29:17.594Z,95416.97
2023-01-22T19:31:48.379Z,95421.16
2023-01-22T19:34:23.429Z,95420.97
2023-01-22T19:37:02.963Z,95420.16
2023-01-22T19:39:30.146Z,95426.84
2023-01-22T19:41:58.173Z,95425.34
2023-01-22T19:44:25.075Z,95424.31
2023-01-22T19:46:51.891Z,95410.91
2023-01-22T19:49:18.703Z,95427.84
2023-01-22T19:51:45.508Z,95427.09
2023-01-22T19:54:13.384Z,95436.50
2023-01-22T19:56:45.507Z,95419.41
2023-01-22T19:59:18.921Z,95429.50
2023-01-22T20:01:48.654Z,95443.34
2023-01-22T20:04:26.197Z,95440.50
2023-01-22T20:07:02.588Z,95450.56
2023-01-22T20:09:30.631Z,95445.50
2023-01-22T20:11:58.338Z,95433.81
2023-01-22T20:14:34.455Z,95438.22
2023-01-22T20:17:02.784Z,95442.25
2023-01-22T20:19:30.613Z,95442.31
2023-01-22T20:21:57.499Z,95448.50
2023-01-22T20:24:24.284Z,95432.63
2023-01-22T20:26:54.875Z,95447.06
2023-01-22T20:29:21.818Z,95442.28
2023-01-22T20:31:52.589Z,95441.47
2023-01-22T20:34:19.485Z,95444.94
2023-01-22T20:36:46.445Z,95439.97
2023-01-22T20:39:13.598Z,95436.94
2023-01-22T20:41:40.343Z,95454.28
2023-01-22T20:44:07.288Z,95461.16
2023-01-22T20:46:36.123Z,95449.72
2023-01-22T20:49:02.932Z,95451.84
2023-01-22T20:51:30.107Z,95452.34
2023-01-22T20:53:57.790Z,95459.22
2023-01-22T20:56:30.459Z,95459.63
2023-01-22T20:58:59.591Z,95448.63
2023-01-22T21:01:28.077Z,95448.25
2023-01-22T21:03:57.091Z,95449.38
2023-01-22T21:06:27.464Z,95436.03
2023-01-22T21:08:56.394Z,95454.03
2023-01-22T21:11:25.369Z,95452.50
2023-01-22T21:13:53.427Z,95455.66
2023-01-22T21:16:27.127Z,95449.34
2023-01-22T21:19:00.645Z,95438.00
2023-01-22T21:21:29.783Z,95440.47
2023-01-22T21:23:58.031Z,95450.22
2023-01-22T21:26:29.336Z,95465.19
2023-01-22T21:29:03.292Z,95466.78
2023-01-22T21:31:30.704Z,95465.75
2023-01-22T21:34:03.062Z,95455.47
2023-01-22T21:36:38.058Z,95454.94
2023-01-22T21:39:08.919Z,95460.94
2023-01-22T21:41:36.040Z,95478.75
2023-01-22T21:44:21.473Z,95461.28
2023-01-22T21:46:48.378Z,95459.03
2023-01-22T21:49:20.042Z,95483.53
2023-01-22T21:51:48.138Z,95485.06
2023-01-22T21:54:19.273Z,95468.97
2023-01-22T21:56:46.340Z,95470.72
2023-01-22T21:59:13.450Z,95476.44
2023-01-22T22:01:40.712Z,95458.88
2023-01-22T22:04:09.317Z,95482.56
2023-01-22T22:06:36.693Z,95474.75
2023-01-22T22:09:07.586Z,95492.31
2023-01-22T22:11:34.864Z,95484.53
2023-01-22T22:14:01.814Z,95488.78
2023-01-22T22:16:28.641Z,95484.47
2023-01-22T22:18:56.833Z,95492.91
2023-01-22T22:21:23.664Z,95485.63
2023-01-22T22:23:50.712Z,95501.44
2023-01-22T22:26:18.444Z,95498.44
2023-01-22T22:28:45.458Z,95485.78
2023-01-22T22:31:15.776Z,95489.47
2023-01-22T22:33:45.520Z,95492.75
2023-01-22T22:36:15.812Z,95470.53
2023-01-22T22:38:43.201Z,95465.88
2023-01-22T22:41:16.472Z,95471.88
2023-01-22T22:43:46.837Z,95481.22
2023-01-22T22:46:26.450Z,95465.81
2023-01-22T22:48:55.294Z,95475.78
2023-01-22T22:51:34.246Z,95466.44
2023-01-22T22:54:07.716Z,95473.81
2023-01-22T22:56:34.927Z,95468.19
2023-01-22T22:59:02.566Z,95472.28
2023-01-22T23:01:33.722Z,95478.84
2023-01-22T23:04:01.481Z,95492.34
2023-01-22T23:06:33.171Z,95490.63
2023-01-22T23:09:01.262Z,95468.53
2023-01-22T23:11:32.250Z,95482.03
2023-01-22T23:14:01.618Z,95489.34
2023-01-22T23:16:38.064Z,95476.88
2023-01-22T23:19:14.397Z,95467.56
2023-01-22T23:21:41.827Z,95498.78
2023-01-22T23:24:14.089Z,95480.09
2023-01-22T23:26:43.644Z,95482.44
2023-01-22T23:29:15.033Z,95473.25
2023-01-22T23:31:42.069Z,95486.50
2023-01-22T23:34:14.309Z,95484.13
2023-01-22T23:36:44.527Z,95465.81
2023-01-22T23:39:14.043Z,95484.75
2023-01-22T23:41:42.086Z,95494.84
2023-01-22T23:44:09.138Z,95491.22
2023-01-22T23:46:36.566Z,95478.41
2023-01-22T23:49:04.563Z,95461.78
2023-01-22T23:51:32.103Z,95483.97
2023-01-22T23:53:59.275Z,95488.44
2023-01-22T23:56:32.082Z,95467.88
2023-01-22T23:58:59.861Z,95478.41
